Time;durP1;ratioP1;P1;durP2;ratioP2;P2;SDS_P1;SDS_P2;PMS_P1;PMS_P2;Temp;Humidity;BMP_temperature;BMP_pressure;BME280_temperature;BME280_humidity;BME280_pressure;Samples;Min_cycle;Max_cycle;Signal;HPM_P1;HPM_P2
2021/05/07 04:24:21;;;;;;;23.73;22.43;;;8.00;99.90;;;;;;5849016;23;21535;-72
2021/05/07 04:26:47;;;;;;;23.20;22.30;;;8.00;99.90;;;;;;5007119;28;20548;-72
2021/05/07 04:29:14;;;;;;;24.57;23.53;;;8.00;99.90;;;;;;5010270;28;20508;-71
2021/05/07 04:31:40;;;;;;;24.63;23.73;;;8.00;99.90;;;;;;5002081;28;20519;-71
2021/05/07 04:34:06;;;;;;;26.07;24.83;;;8.00;99.90;;;;;;4992576;28;20953;-70
2021/05/07 04:36:32;;;;;;;23.80;22.80;;;8.00;99.90;;;;;;4991019;28;20435;-70
2021/05/07 04:38:59;;;;;;;25.47;24.43;;;8.00;99.90;;;;;;4990992;28;20450;-70
2021/05/07 04:41:26;;;;;;;24.57;23.60;;;8.10;99.90;;;;;;4991116;28;20462;-71
2021/05/07 04:43:52;;;;;;;26.70;25.50;;;8.10;99.90;;;;;;4996389;28;20939;-71
2021/05/07 04:46:18;;;;;;;26.07;24.87;;;8.00;99.90;;;;;;5010204;28;20494;-71
2021/05/07 04:48:44;;;;;;;24.90;23.80;;;8.10;99.90;;;;;;5009754;28;20453;-70
2021/05/07 04:51:10;;;;;;;25.57;24.57;;;8.00;99.90;;;;;;5010644;28;20449;-71
2021/05/07 04:53:36;;;;;;;27.70;26.50;;;8.00;99.90;;;;;;5010650;28;20457;-72
2021/05/07 04:56:03;;;;;;;25.07;24.07;;;8.00;99.90;;;;;;5010435;28;20837;-73
2021/05/07 04:58:30;;;;;;;28.77;27.47;;;8.10;99.90;;;;;;5010531;28;20810;-72
2021/05/07 05:00:57;;;;;;;29.13;27.60;;;8.10;99.90;;;;;;5010492;28;20948;-72
2021/05/07 05:03:23;;;;;;;27.80;26.57;;;8.10;99.90;;;;;;5010531;28;20556;-73
2021/05/07 05:05:50;;;;;;;27.27;25.97;;;8.10;99.90;;;;;;5010307;28;20446;-73
2021/05/07 05:08:21;;;;;;;25.10;24.10;;;8.10;99.90;;;;;;5010287;28;20489;-73
2021/05/07 05:10:47;;;;;;;26.33;25.33;;;7.90;99.90;;;;;;5010375;28;20792;-72
2021/05/07 05:13:14;;;;;;;25.53;24.53;;;7.90;99.90;;;;;;5010536;28;20515;-72
2021/05/07 05:15:41;;;;;;;25.30;24.30;;;7.80;99.90;;;;;;5010669;28;20450;-72
2021/05/07 05:18:07;;;;;;;26.27;25.07;;;7.80;99.90;;;;;;5010032;28;20512;-72
2021/05/07 05:20:33;;;;;;;27.37;26.27;;;7.80;99.90;;;;;;5010156;28;20989;-71
2021/05/07 05:22:59;;;;;;;28.03;26.80;;;7.80;99.90;;;;;;5014110;28;20474;-71
2021/05/07 05:25:25;;;;;;;28.47;27.27;;;7.80;99.90;;;;;;5029936;28;20504;-71
2021/05/07 05:27:52;;;;;;;28.00;26.70;;;7.80;99.90;;;;;;5029518;28;20484;-71
2021/05/07 05:30:19;;;;;;;28.67;27.37;;;7.80;99.90;;;;;;5029678;28;20552;-71
2021/05/07 05:32:46;;;;;;;29.57;28.20;;;7.80;99.90;;;;;;5029882;28;20482;-71
2021/05/07 05:35:12;;;;;;;29.90;28.50;;;7.80;99.90;;;;;;5029971;28;20445;-72
2021/05/07 05:37:38;;;;;;;30.03;28.70;;;7.90;99.90;;;;;;5029934;28;20812;-72
2021/05/07 05:40:05;;;;;;;30.50;28.90;;;7.90;99.90;;;;;;5029806;28;20458;-72
2021/05/07 05:42:32;;;;;;;31.80;29.43;;;7.90;99.90;;;;;;5029794;28;20453;-71
2021/05/07 05:44:58;;;;;;;29.53;28.20;;;7.80;99.90;;;;;;5030160;28;20867;-72
2021/05/07 05:47:24;;;;;;;29.50;28.10;;;7.90;99.90;;;;;;5029753;28;20803;-72
2021/05/07 05:49:51;;;;;;;27.80;26.70;;;7.90;99.90;;;;;;5029928;28;20448;-72
2021/05/07 05:52:17;;;;;;;26.83;25.73;;;7.90;99.90;;;;;;5029896;28;20455;-72
2021/05/07 05:54:43;;;;;;;25.30;24.23;;;8.00;99.90;;;;;;5029615;28;20827;-72
2021/05/07 05:57:09;;;;;;;26.10;25.00;;;8.00;99.90;;;;;;5029763;28;20445;-72
2021/05/07 05:59:36;;;;;;;25.93;24.60;;;8.00;99.90;;;;;;5031929;28;20456;-72
2021/05/07 06:02:02;;;;;;;25.33;24.27;;;8.00;99.90;;;;;;5033316;28;20448;-73
2021/05/07 06:04:28;;;;;;;25.80;24.60;;;8.10;99.90;;;;;;5033176;28;20977;-72
2021/05/07 06:06:55;;;;;;;25.67;24.50;;;8.10;99.90;;;;;;5033010;28;20941;-72
2021/05/07 06:09:21;;;;;;;24.03;22.93;;;8.10;99.90;;;;;;5033179;28;20503;-73
2021/05/07 06:11:47;;;;;;;25.00;23.90;;;8.20;99.90;;;;;;5033247;28;20445;-72
2021/05/07 06:14:13;;;;;;;24.60;23.40;;;8.20;99.90;;;;;;5033091;28;20457;-73
2021/05/07 06:16:43;;;;;;;24.47;23.37;;;8.30;99.90;;;;;;5032998;28;20460;-72
2021/05/07 06:19:10;;;;;;;21.93;20.93;;;8.40;99.90;;;;;;5032736;28;20451;-71
2021/05/07 06:21:36;;;;;;;22.33;21.33;;;8.40;99.90;;;;;;5032739;28;20551;-71
2021/05/07 06:24:04;;;;;;;22.77;21.67;;;8.60;99.90;;;;;;5031912;28;20489;-72
2021/05/07 06:26:30;;;;;;;21.07;20.07;;;8.80;99.90;;;;;;5032438;28;20982;-72
2021/05/07 06:28:56;;;;;;;23.00;21.43;;;8.80;99.90;;;;;;5032853;28;20452;-72
2021/05/07 06:31:23;;;;;;;22.03;20.93;;;8.90;99.90;;;;;;5032699;28;20453;-72
2021/05/07 06:33:49;;;;;;;19.83;18.90;;;9.10;99.90;;;;;;5031820;28;20457;-72
2021/05/07 06:36:17;;;;;;;19.10;18.10;;;9.20;99.90;;;;;;5032030;28;20449;-72
2021/05/07 06:38:44;;;;;;;19.77;18.57;;;9.30;99.90;;;;;;5032207;28;20472;-71
2021/05/07 06:41:12;;;;;;;20.47;19.57;;;9.40;99.90;;;;;;5032215;28;20453;-71
2021/05/07 06:43:38;;;;;;;19.70;18.50;;;9.30;99.90;;;;;;5032511;28;20452;-72
2021/05/07 06:46:04;;;;;;;18.23;17.23;;;9.20;99.90;;;;;;5032379;28;20530;-73
2021/05/07 06:48:30;;;;;;;18.77;17.37;;;9.10;99.90;;;;;;5032568;28;20450;-72
2021/05/07 06:50:56;;;;;;;17.90;16.90;;;9.10;99.90;;;;;;5032591;28;20974;-70
2021/05/07 06:53:23;;;;;;;16.80;16.00;;;9.20;99.90;;;;;;5032234;28;20456;-73
2021/05/07 06:55:49;;;;;;;19.47;18.13;;;9.30;99.90;;;;;;5032278;28;20446;-71
2021/05/07 06:58:16;;;;;;;18.90;18.00;;;9.40;99.90;;;;;;5032255;28;20453;-72
2021/05/07 07:00:43;;;;;;;18.73;17.63;;;9.30;99.90;;;;;;5031735;28;20449;-71
2021/05/07 07:03:09;;;;;;;18.23;17.33;;;9.20;99.90;;;;;;5031552;28;20467;-71
2021/05/07 07:05:35;;;;;;;17.97;16.93;;;9.20;99.90;;;;;;5031627;28;20481;-71
2021/05/07 07:08:01;;;;;;;18.13;17.23;;;9.20;99.90;;;;;;5031320;28;20489;-71
2021/05/07 07:10:27;;;;;;;16.70;15.80;;;9.20;99.90;;;;;;5030843;28;20453;-71
2021/05/07 07:12:54;;;;;;;15.97;15.17;;;9.20;99.90;;;;;;5031275;28;20453;-71
2021/05/07 07:15:21;;;;;;;16.10;15.30;;;9.10;99.90;;;;;;5031201;28;20456;-72
2021/05/07 07:17:47;;;;;;;15.87;14.97;;;9.20;99.90;;;;;;5031222;28;20467;-71
2021/05/07 07:20:14;;;;;;;16.40;15.33;;;9.10;99.90;;;;;;5031291;28;20461;-71
2021/05/07 07:22:40;;;;;;;17.17;16.17;;;9.10;99.90;;;;;;5031618;28;20876;-72
2021/05/07 07:25:07;;;;;;;18.30;17.23;;;9.00;99.90;;;;;;5031045;28;20484;-72
2021/05/07 07:27:33;;;;;;;17.93;17.03;;;9.10;99.90;;;;;;5031033;28;20484;-72
2021/05/07 07:29:59;;;;;;;17.77;16.60;;;9.20;99.90;;;;;;5031275;28;20516;-72
2021/05/07 07:32:27;;;;;;;18.97;17.67;;;9.20;99.90;;;;;;5031574;28;20444;-72
2021/05/07 07:34:56;;;;;;;16.60;15.70;;;9.20;99.90;;;;;;5031273;28;20461;-72
2021/05/07 07:37:22;;;;;;;17.50;16.50;;;9.10;99.90;;;;;;5031300;28;20444;-72
2021/05/07 07:39:48;;;;;;;17.20;16.10;;;9.00;99.90;;;;;;5031002;28;20456;-72
2021/05/07 07:42:15;;;;;;;17.67;16.67;;;8.90;99.90;;;;;;5031105;28;20961;-72
2021/05/07 07:44:41;;;;;;;16.30;15.27;;;9.00;99.90;;;;;;5031258;28;20468;-72
2021/05/07 07:47:07;;;;;;;16.77;15.87;;;8.90;99.90;;;;;;5030787;28;20489;-71
2021/05/07 07:49:34;;;;;;;17.90;16.70;;;9.00;99.90;;;;;;5030756;28;20653;-72
2021/05/07 07:52:00;;;;;;;16.73;15.73;;;9.00;99.90;;;;;;5030621;28;20453;-72
2021/05/07 07:54:27;;;;;;;17.87;16.97;;;9.20;99.90;;;;;;5030810;28;20450;-73
2021/05/07 07:56:53;;;;;;;16.20;15.33;;;9.30;99.90;;;;;;5030997;28;20460;-73
2021/05/07 07:59:20;;;;;;;15.53;14.47;;;9.50;99.90;;;;;;5030805;28;20452;-73
2021/05/07 08:01:46;;;;;;;15.50;14.60;;;9.80;99.90;;;;;;5030775;28;20548;-73
2021/05/07 08:04:16;;;;;;;16.20;15.30;;;10.00;99.90;;;;;;5030777;28;20457;-73
2021/05/07 08:06:43;;;;;;;16.60;15.70;;;10.10;99.90;;;;;;5030690;28;20494;-73
2021/05/07 08:09:10;;;;;;;15.33;14.43;;;10.20;99.90;;;;;;5030949;28;20460;-73
2021/05/07 08:11:36;;;;;;;16.60;15.70;;;10.80;99.90;;;;;;5030595;28;20478;-73
2021/05/07 08:14:02;;;;;;;15.30;14.40;;;11.30;99.90;;;;;;5030712;28;20950;-73
2021/05/07 08:16:29;;;;;;;15.00;14.20;;;11.10;99.90;;;;;;5030737;28;20449;-73
2021/05/07 08:18:56;;;;;;;16.07;15.23;;;11.20;99.90;;;;;;5030604;28;20521;-73
2021/05/07 08:21:24;;;;;;;16.60;15.40;;;11.80;99.90;;;;;;5030558;28;20460;-72
2021/05/07 08:23:51;;;;;;;15.57;14.57;;;13.00;99.90;;;;;;5030387;28;20998;-72
2021/05/07 08:26:18;;;;;;;17.00;16.10;;;13.30;99.90;;;;;;5030028;28;20487;-72
2021/05/07 08:28:44;;;;;;;15.07;14.37;;;13.60;99.90;;;;;;5030300;28;20448;-73
2021/05/07 08:31:11;;;;;;;15.40;14.60;;;14.20;99.90;;;;;;5030178;28;20844;-72
2021/05/07 08:33:37;;;;;;;16.53;15.53;;;15.00;99.90;;;;;;5030218;28;20449;-72
2021/05/07 08:36:03;;;;;;;14.70;14.00;;;15.70;99.90;;;;;;5030059;28;20982;-72
2021/05/07 08:38:30;;;;;;;14.40;13.70;;;15.90;98.70;;;;;;5030228;28;20437;-72
2021/05/07 08:41:00;;;;;;;15.60;14.50;;;15.30;99.90;;;;;;5030416;28;20459;-72
2021/05/07 08:43:26;;;;;;;13.87;13.27;;;15.40;96.20;;;;;;5028891;28;20448;-72
2021/05/07 08:45:52;;;;;;;15.03;14.17;;;15.70;95.90;;;;;;5030386;28;20448;-72
2021/05/07 08:48:19;;;;;;;13.20;12.60;;;16.30;96.00;;;;;;5030231;28;20584;-72
2021/05/07 08:50:48;;;;;;;14.80;14.10;;;17.00;95.50;;;;;;5030367;28;20465;-73
2021/05/07 08:53:15;;;;;;;15.10;14.40;;;17.70;92.20;;;;;;5030076;28;20487;-73
2021/05/07 08:55:42;;;;;;;13.40;12.80;;;17.80;92.00;;;;;;5030191;28;20950;-72
2021/05/07 08:58:09;;;;;;;14.63;13.90;;;18.00;92.30;;;;;;5030070;28;20519;-72
2021/05/07 09:00:35;;;;;;;15.27;14.50;;;18.00;90.70;;;;;;5030175;28;20463;-72
2021/05/07 09:03:06;;;;;;;14.23;13.63;;;17.30;90.40;;;;;;5029932;28;20582;-72
2021/05/07 09:05:33;;;;;;;16.80;15.60;;;17.10;90.90;;;;;;5029750;28;20503;-71
2021/05/07 09:07:59;;;;;;;16.53;15.73;;;16.50;91.80;;;;;;5029731;28;20484;-71
2021/05/07 09:10:35;;;;;;;14.67;13.97;;;15.20;93.10;;;;;;5029908;28;20456;-72
2021/05/07 09:13:02;;;;;;;13.20;12.50;;;14.10;94.50;;;;;;5029961;28;21071;-71
2021/05/07 09:15:40;;;;;;;14.87;13.97;;;14.10;94.80;;;;;;5029744;28;20449;-71
2021/05/07 09:18:07;;;;;;;13.67;12.87;;;15.70;93.90;;;;;;5029916;28;20449;-72
2021/05/07 09:20:38;;;;;;;16.00;14.77;;;15.60;90.50;;;;;;5030109;28;20448;-71
2021/05/07 09:23:10;;;;;;;13.33;12.73;;;16.20;91.20;;;;;;5029486;28;20469;-71
2021/05/07 09:25:37;;;;;;;14.37;13.60;;;16.60;91.50;;;;;;5029771;28;20875;-71
2021/05/07 09:28:08;;;;;;;14.17;13.30;;;17.80;84.90;;;;;;5029796;28;20480;-72
2021/05/07 09:30:34;;;;;;;14.17;13.50;;;17.10;84.10;;;;;;5029903;28;20452;-71
2021/05/07 09:33:06;;;;;;;13.80;13.20;;;17.20;80.10;;;;;;5029845;28;20453;-71
2021/05/07 09:35:32;;;;;;;15.23;14.43;;;17.90;81.00;;;;;;5033755;28;20452;-71
2021/05/07 09:38:00;;;;;;;13.70;13.00;;;18.70;77.80;;;;;;5033820;28;20954;-71
2021/05/07 09:40:26;;;;;;;14.30;13.60;;;18.40;74.10;;;;;;5033908;28;20791;-71
2021/05/07 09:43:07;;;;;;;15.47;14.63;;;18.70;74.30;;;;;;5033617;28;20479;-71
2021/05/07 09:45:34;;;;;;;14.00;13.30;;;17.00;73.90;;;;;;5033941;28;20449;-71
2021/05/07 09:48:02;;;;;;;13.43;12.93;;;16.70;76.30;;;;;;5033712;28;20491;-71
2021/05/07 09:50:37;;;;;;;14.20;13.60;;;16.90;77.00;;;;;;5033984;28;20456;-71
2021/05/07 09:53:12;;;;;;;14.90;14.30;;;16.00;76.40;;;;;;5034012;28;20476;-70
2021/05/07 09:55:38;;;;;;;14.50;13.80;;;14.70;77.30;;;;;;5033701;28;20448;-70
2021/05/07 09:58:04;;;;;;;14.30;13.50;;;13.90;80.20;;;;;;5033739;28;20471;-71
2021/05/07 10:00:31;;;;;;;14.67;13.87;;;14.20;82.20;;;;;;5033699;28;20938;-71
2021/05/07 10:02:57;;;;;;;14.43;13.73;;;15.90;80.30;;;;;;5033825;28;20923;-71
2021/05/07 10:05:24;;;;;;;14.47;13.67;;;16.80;74.50;;;;;;5033552;28;20459;-70
2021/05/07 10:07:50;;;;;;;12.10;11.60;;;16.60;75.30;;;;;;5033408;28;21140;-71
2021/05/07 10:10:17;;;;;;;14.20;13.30;;;16.90;74.80;;;;;;5033447;28;20787;-70
2021/05/07 10:12:46;;;;;;;13.80;13.20;;;17.70;70.70;;;;;;5033250;28;20484;-71
2021/05/07 10:15:12;;;;;;;14.47;13.67;;;18.30;69.50;;;;;;5033300;28;20449;-71
2021/05/07 10:17:49;;;;;;;14.47;13.57;;;18.30;66.70;;;;;;5033263;28;20523;-71
2021/05/07 10:20:24;;;;;;;13.80;12.90;;;17.50;64.70;;;;;;5033166;28;20445;-71
2021/05/07 10:22:50;;;;;;;13.50;12.80;;;17.00;64.90;;;;;;5033237;28;20825;-71
2021/05/07 10:25:19;;;;;;;13.20;12.40;;;16.60;66.60;;;;;;5033043;28;21048;-70
2021/05/07 10:27:46;;;;;;;14.80;14.10;;;17.20;67.30;;;;;;5033180;28;20578;-70
2021/05/07 10:30:26;;;;;;;13.77;13.17;;;18.20;62.40;;;;;;5033253;28;20547;-70
2021/05/07 10:33:01;;;;;;;12.57;12.00;;;17.90;60.20;;;;;;5033222;28;20502;-70
2021/05/07 10:35:33;;;;;;;13.30;12.70;;;17.20;62.30;;;;;;5033151;28;20441;-71
2021/05/07 10:38:25;;;;;;;14.23;13.53;;;17.50;63.40;;;;;;5033246;28;20468;-71
2021/05/07 10:41:03;;;;;;;13.80;13.20;;;19.20;59.50;;;;;;5014244;28;20489;-71
2021/05/07 10:43:36;;;;;;;13.60;12.90;;;19.00;57.30;;;;;;5033092;28;20448;-70
2021/05/07 10:46:03;;;;;;;13.20;12.70;;;17.90;59.00;;;;;;5031837;28;20484;-70
2021/05/07 10:48:29;;;;;;;14.03;13.43;;;16.80;61.00;;;;;;5033061;28;20638;-70
2021/05/07 10:50:58;;;;;;;14.87;14.00;;;16.20;64.00;;;;;;5033048;28;20437;-70
2021/05/07 10:53:35;;;;;;;13.50;12.80;;;16.10;64.40;;;;;;5032629;28;20456;-69
2021/05/07 10:56:13;;;;;;;14.03;13.33;;;15.70;65.80;;;;;;5032720;28;20853;-70
2021/05/07 10:58:39;;;;;;;12.90;12.00;;;15.00;66.90;;;;;;5032935;28;20452;-70
2021/05/07 11:01:20;;;;;;;14.27;13.50;;;15.20;68.70;;;;;;5032671;28;20510;-70
2021/05/07 11:03:58;;;;;;;14.27;13.70;;;15.00;69.30;;;;;;5032533;28;20453;-70
2021/05/07 11:06:30;;;;;;;14.33;13.27;;;16.40;67.70;;;;;;5032538;28;20831;-70
2021/05/07 11:08:57;;;;;;;14.07;13.47;;;16.40;63.70;;;;;;5032433;28;20445;-70
2021/05/07 11:11:23;;;;;;;14.20;13.60;;;16.30;63.60;;;;;;5032495;28;20457;-69
2021/05/07 11:13:49;;;;;;;13.30;12.60;;;15.80;64.50;;;;;;5032368;28;20453;-70
2021/05/07 11:16:16;;;;;;;12.07;11.60;;;15.50;64.10;;;;;;5032144;28;20460;-70
2021/05/07 11:18:47;;;;;;;13.53;12.73;;;15.80;63.30;;;;;;5032460;28;20493;-70
2021/05/07 11:21:15;;;;;;;12.80;12.30;;;16.80;60.10;;;;;;5032293;28;20463;-70
2021/05/07 11:23:42;;;;;;;13.63;12.60;;;16.80;58.30;;;;;;5032205;28;20468;-70
2021/05/07 11:26:08;;;;;;;12.87;12.27;;;16.30;58.40;;;;;;5032002;28;20496;-70
2021/05/07 11:28:42;;;;;;;14.07;13.47;;;16.70;59.50;;;;;;5032136;28;20495;-70
2021/05/07 11:31:09;;;;;;;13.93;13.17;;;16.30;59.10;;;;;;5031709;28;20973;-70
2021/05/07 11:33:35;;;;;;;13.63;12.60;;;16.50;60.10;;;;;;5031823;28;20444;-70
2021/05/07 11:36:07;;;;;;;14.10;13.50;;;17.50;58.90;;;;;;5031790;28;20460;-70
2021/05/07 11:38:33;;;;;;;11.70;11.30;;;17.60;55.60;;;;;;5031815;28;20449;-70
2021/05/07 11:41:00;;;;;;;13.00;12.40;;;17.70;54.50;;;;;;5031823;28;20947;-69
2021/05/07 11:43:28;;;;;;;12.50;11.90;;;17.60;55.60;;;;;;5031751;28;20464;-70
2021/05/07 11:46:05;;;;;;;12.90;12.40;;;17.50;57.00;;;;;;5031822;28;20457;-70
2021/05/07 11:48:32;;;;;;;12.93;12.13;;;18.50;55.20;;;;;;5031542;28;21013;-70
2021/05/07 11:51:04;;;;;;;13.40;12.70;;;18.50;54.60;;;;;;5031882;28;20958;-70
2021/05/07 11:53:30;;;;;;;12.33;11.70;;;17.10;56.60;;;;;;5031677;28;20466;-70
2021/05/07 11:55:56;;;;;;;12.23;11.53;;;17.00;57.50;;;;;;5031538;28;20863;-70
2021/05/07 11:58:32;;;;;;;12.90;12.30;;;17.90;57.40;;;;;;5031420;28;20445;-70
2021/05/07 12:00:58;;;;;;;13.50;13.00;;;18.80;54.70;;;;;;5031814;28;20453;-70
2021/05/07 12:03:35;;;;;;;14.60;13.70;;;19.20;54.70;;;;;;5031204;28;20449;-69
2021/05/07 12:06:01;;;;;;;12.27;11.77;;;19.30;52.60;;;;;;5031025;28;20449;-69
2021/05/07 12:08:27;;;;;;;13.10;12.20;;;17.90;55.60;;;;;;5031098;28;21012;-69
2021/05/07 12:10:54;;;;;;;13.10;12.50;;;17.10;57.40;;;;;;5031247;28;20453;-69
2021/05/07 12:13:24;;;;;;;13.43;12.83;;;15.90;59.40;;;;;;5031058;28;20479;-69
2021/05/07 12:15:52;;;;;;;13.23;12.63;;;16.70;60.50;;;;;;5031204;28;20457;-69
2021/05/07 12:18:20;;;;;;;12.87;12.23;;;18.60;59.70;;;;;;5031034;28;20982;-69
2021/05/07 12:20:49;;;;;;;13.53;12.90;;;19.70;56.80;;;;;;5031059;28;20457;-69
2021/05/07 12:23:16;;;;;;;13.67;12.80;;;20.80;55.20;;;;;;5030902;28;20877;-70
2021/05/07 12:25:44;;;;;;;13.53;12.73;;;21.30;53.10;;;;;;5030881;28;20492;-69
2021/05/07 12:28:14;;;;;;;12.53;12.00;;;19.80;54.20;;;;;;5030795;28;21025;-69
2021/05/07 12:30:44;;;;;;;12.80;12.20;;;19.40;53.20;;;;;;5031056;28;20484;-70
2021/05/07 12:33:17;;;;;;;13.17;12.57;;;20.00;51.40;;;;;;5030956;28;20457;-70
2021/05/07 12:35:44;;;;;;;13.73;13.13;;;18.90;52.00;;;;;;5030780;28;20514;-69
2021/05/07 12:38:20;;;;;;;13.23;12.43;;;17.90;53.40;;;;;;5030544;28;20977;-69
2021/05/07 12:40:46;;;;;;;12.53;11.97;;;17.30;53.40;;;;;;5028094;28;20463;-69
2021/05/07 12:43:12;;;;;;;11.87;11.37;;;16.50;54.90;;;;;;5021538;28;20438;-70
2021/05/07 12:45:39;;;;;;;12.30;11.60;;;15.80;56.50;;;;;;5017808;28;20457;-70
2021/05/07 12:48:06;;;;;;;11.80;11.30;;;15.10;57.60;;;;;;5016828;28;20492;-71
2021/05/07 12:50:33;;;;;;;10.77;10.37;;;14.70;58.50;;;;;;5030553;28;20490;-68
2021/05/07 12:52:59;;;;;;;11.10;10.70;;;14.50;58.90;;;;;;5029557;28;20464;-68
2021/05/07 12:55:25;;;;;;;12.00;11.40;;;14.60;59.20;;;;;;5030713;28;20457;-69
2021/05/07 12:57:51;;;;;;;10.80;10.40;;;15.90;58.60;;;;;;5028990;28;20449;-69
2021/05/07 13:00:18;;;;;;;12.57;12.07;;;16.80;55.10;;;;;;5011165;28;20838;-68
2021/05/07 13:02:44;;;;;;;12.33;11.73;;;17.70;53.90;;;;;;5011137;28;20462;-68
2021/05/07 13:05:11;;;;;;;12.93;12.33;;;17.90;53.60;;;;;;5014103;28;20473;-68
2021/05/07 13:07:39;;;;;;;14.10;13.10;;;18.50;52.00;;;;;;5020513;28;20496;-68
2021/05/07 13:10:06;;;;;;;12.33;11.83;;;18.40;52.20;;;;;;5034248;28;21028;-69
2021/05/07 13:12:32;;;;;;;11.30;10.50;;;17.70;52.00;;;;;;5034981;28;20460;-68
2021/05/07 13:15:01;;;;;;;11.93;11.27;;;16.90;53.00;;;;;;5035293;28;20453;-68
2021/05/07 13:17:32;;;;;;;11.03;10.53;;;16.20;53.50;;;;;;5035227;28;20444;-69
2021/05/07 13:19:58;;;;;;;11.80;11.20;;;16.70;54.10;;;;;;5035050;28;20452;-68
2021/05/07 13:22:25;;;;;;;11.53;11.00;;;16.30;53.80;;;;;;5035208;28;20448;-68
2021/05/07 13:24:52;;;;;;;12.17;11.67;;;15.80;55.20;;;;;;5034785;28;20488;-68
2021/05/07 13:27:18;;;;;;;12.83;12.03;;;15.50;56.00;;;;;;5034905;28;20491;-68
2021/05/07 13:29:44;;;;;;;12.10;11.50;;;15.00;57.00;;;;;;5034864;28;20449;-68
2021/05/07 13:32:12;;;;;;;12.17;11.37;;;14.80;58.00;;;;;;5034864;28;20461;-68
2021/05/07 13:34:38;;;;;;;12.60;11.90;;;14.80;58.70;;;;;;5034348;28;20484;-67
2021/05/07 13:37:05;;;;;;;11.87;10.97;;;14.40;59.60;;;;;;5034654;28;20449;-68
2021/05/07 13:39:31;;;;;;;12.70;12.10;;;14.00;60.70;;;;;;5034014;28;20464;-70
2021/05/07 13:41:58;;;;;;;11.77;11.13;;;13.80;64.30;;;;;;5034906;28;20461;-68
2021/05/07 13:44:24;;;;;;;12.80;12.10;;;13.30;68.30;;;;;;5034872;28;20453;-68
2021/05/07 13:46:50;;;;;;;14.00;13.20;;;13.00;74.80;;;;;;5034551;28;20449;-71
2021/05/07 13:49:16;;;;;;;13.63;12.80;;;12.60;81.90;;;;;;5031309;28;20445;-68
2021/05/07 13:51:44;;;;;;;14.93;14.10;;;12.20;92.70;;;;;;5014945;28;20491;-68
2021/05/07 13:54:10;;;;;;;14.80;14.00;;;12.00;95.60;;;;;;5014876;28;20500;-68
2021/05/07 13:56:36;;;;;;;12.70;12.00;;;12.00;97.80;;;;;;5014748;28;20484;-68
2021/05/07 13:59:04;;;;;;;11.90;11.30;;;12.00;96.60;;;;;;5014707;28;20450;-69
2021/05/07 14:01:30;;;;;;;12.47;11.70;;;12.00;95.10;;;;;;5014416;28;20964;-69
2021/05/07 14:03:57;;;;;;;13.67;12.70;;;12.00;95.80;;;;;;5014439;28;20461;-69
2021/05/07 14:06:23;;;;;;;13.80;12.90;;;12.40;96.00;;;;;;5030673;28;20468;-69
2021/05/07 14:08:49;;;;;;;12.37;11.77;;;13.50;94.90;;;;;;5033622;28;20480;-69
2021/05/07 14:11:15;;;;;;;11.90;11.30;;;15.10;90.50;;;;;;5033630;28;21057;-70
2021/05/07 14:13:41;;;;;;;12.80;12.10;;;15.80;83.30;;;;;;5033484;28;20808;-69
2021/05/07 14:16:08;;;;;;;13.33;12.63;;;16.40;78.00;;;;;;5033245;28;20467;-69
2021/05/07 14:18:35;;;;;;;12.33;11.70;;;16.80;74.50;;;;;;5033311;28;20436;-68
2021/05/07 14:21:01;;;;;;;13.17;12.47;;;16.70;72.90;;;;;;5033182;28;20476;-69
2021/05/07 14:23:27;;;;;;;11.93;11.43;;;17.30;72.30;;;;;;5033310;28;20472;-69
2021/05/07 14:25:53;;;;;;;12.27;11.63;;;18.10;70.50;;;;;;5032795;28;20488;-69
2021/05/07 14:28:19;;;;;;;13.03;12.43;;;18.90;68.90;;;;;;5032996;28;20495;-69
2021/05/07 14:30:45;;;;;;;14.80;13.90;;;18.90;65.40;;;;;;5032758;28;20453;-69
2021/05/07 14:33:15;;;;;;;14.03;13.33;;;19.00;63.10;;;;;;5033236;28;20460;-69
2021/05/07 14:35:41;;;;;;;12.80;12.10;;;17.30;63.20;;;;;;5022099;28;20461;-68
2021/05/07 14:38:07;;;;;;;12.37;11.67;;;16.20;65.80;;;;;;5013208;28;20434;-68
2021/05/07 14:40:33;;;;;;;11.83;11.23;;;15.60;68.60;;;;;;5012955;28;20820;-68
2021/05/07 14:42:59;;;;;;;11.80;11.20;;;14.80;72.00;;;;;;5013221;28;20450;-68
2021/05/07 14:45:26;;;;;;;11.37;10.87;;;14.30;73.70;;;;;;5013422;28;20454;-69
2021/05/07 14:47:52;;;;;;;12.07;11.23;;;14.30;74.30;;;;;;5012827;28;20493;-69
2021/05/07 14:50:20;;;;;;;11.63;11.13;;;14.30;74.30;;;;;;5012982;28;20461;-69
2021/05/07 14:52:46;;;;;;;11.17;10.67;;;14.40;71.10;;;;;;5012540;28;20537;-69
2021/05/07 14:55:13;;;;;;;10.93;10.53;;;14.50;69.50;;;;;;5012811;28;21058;-69
2021/05/07 14:57:39;;;;;;;10.77;10.10;;;14.60;68.50;;;;;;5012542;28;20798;-68
2021/05/07 15:00:07;;;;;;;10.70;10.07;;;14.80;68.60;;;;;;5013331;28;20438;-69
2021/05/07 15:02:33;;;;;;;10.70;10.30;;;14.80;69.60;;;;;;5011204;28;20450;-69
2021/05/07 15:04:59;;;;;;;10.90;10.50;;;15.00;70.20;;;;;;5013105;28;20459;-69
2021/05/07 15:07:26;;;;;;;11.73;11.03;;;15.10;69.50;;;;;;5012811;28;21054;-69
2021/05/07 15:09:53;;;;;;;11.70;11.10;;;15.10;70.30;;;;;;5012833;28;20454;-69
2021/05/07 15:12:19;;;;;;;13.03;12.33;;;14.90;69.30;;;;;;5012594;28;20963;-69
2021/05/07 15:14:46;;;;;;;12.43;11.60;;;14.70;69.00;;;;;;5012617;28;20512;-69
2021/05/07 15:17:12;;;;;;;11.60;11.00;;;14.40;68.50;;;;;;5012869;28;20457;-70
2021/05/07 15:19:38;;;;;;;10.83;10.23;;;14.40;69.50;;;;;;5012468;28;20449;-70
2021/05/07 15:22:04;;;;;;;12.63;12.00;;;14.50;67.50;;;;;;5012244;28;20461;-69
2021/05/07 15:24:31;;;;;;;10.03;9.60;;;14.70;66.90;;;;;;5014422;28;20873;-69
2021/05/07 15:26:58;;;;;;;10.73;10.33;;;14.80;65.40;;;;;;5032196;28;20799;-69
2021/05/07 15:29:24;;;;;;;12.43;11.80;;;14.90;65.50;;;;;;5032131;28;20484;-69
2021/05/07 15:31:50;;;;;;;11.07;10.67;;;15.10;65.20;;;;;;5031313;28;21001;-69
2021/05/07 15:34:16;;;;;;;10.27;9.77;;;15.00;64.30;;;;;;5031891;28;20461;-69
2021/05/07 15:36:43;;;;;;;11.93;11.23;;;15.10;64.10;;;;;;5031974;28;20461;-69
2021/05/07 15:39:09;;;;;;;10.80;10.20;;;15.00;66.10;;;;;;5032067;28;20495;-69
2021/05/07 15:41:36;;;;;;;11.70;11.10;;;14.70;67.60;;;;;;5031747;28;20453;-69
2021/05/07 15:44:03;;;;;;;12.30;11.13;;;14.30;68.20;;;;;;5031973;28;20453;-69
2021/05/07 15:46:29;;;;;;;11.63;11.13;;;14.40;70.30;;;;;;5031846;28;20453;-69
2021/05/07 15:48:56;;;;;;;11.33;10.93;;;14.30;69.10;;;;;;5031733;28;21018;-69
2021/05/07 15:51:22;;;;;;;11.87;11.30;;;14.00;67.50;;;;;;5031598;28;20829;-69
2021/05/07 15:53:48;;;;;;;11.37;10.77;;;13.60;67.80;;;;;;5031877;28;20445;-69
2021/05/07 15:56:15;;;;;;;9.60;9.20;;;13.60;68.60;;;;;;5031689;28;20495;-69
2021/05/07 15:58:42;;;;;;;9.87;9.37;;;13.60;67.90;;;;;;5031926;28;20452;-69
2021/05/07 16:01:08;;;;;;;10.50;10.00;;;13.70;69.40;;;;;;5031658;28;20499;-69
2021/05/07 16:03:34;;;;;;;10.77;10.30;;;13.60;67.80;;;;;;5031533;28;20963;-69
2021/05/07 16:06:00;;;;;;;10.40;9.80;;;13.60;69.40;;;;;;5031779;28;20789;-69
2021/05/07 16:08:26;;;;;;;11.53;10.53;;;13.60;70.50;;;;;;5031646;28;20496;-69
2021/05/07 16:10:53;;;;;;;10.87;10.20;;;13.60;70.50;;;;;;5031427;28;20455;-68
2021/05/07 16:13:20;;;;;;;11.77;11.07;;;13.60;69.80;;;;;;5031168;28;20453;-69
2021/05/07 16:15:47;;;;;;;12.37;11.67;;;13.50;70.40;;;;;;5031463;28;20484;-69
2021/05/07 16:18:13;;;;;;;12.00;11.20;;;13.40;69.50;;;;;;5031629;28;20487;-68
2021/05/07 16:20:40;;;;;;;13.20;12.07;;;13.30;70.10;;;;;;5031488;28;20515;-69
2021/05/07 16:23:07;;;;;;;12.90;12.13;;;13.30;67.20;;;;;;5031314;28;20477;-69
2021/05/07 16:25:33;;;;;;;11.13;10.53;;;13.30;68.10;;;;;;5031100;28;20485;-70
2021/05/07 16:27:59;;;;;;;11.70;11.10;;;13.30;68.40;;;;;;5031410;28;20808;-70
2021/05/07 16:30:25;;;;;;;10.97;10.37;;;13.20;66.00;;;;;;5031226;28;20479;-70
2021/05/07 16:32:53;;;;;;;10.33;9.93;;;13.10;66.70;;;;;;5031260;28;20453;-70
2021/05/07 16:35:20;;;;;;;11.10;10.40;;;13.20;67.30;;;;;;5031149;28;21167;-69
2021/05/07 16:37:48;;;;;;;10.80;10.07;;;13.20;67.90;;;;;;5031226;28;20519;-69
2021/05/07 16:40:15;;;;;;;10.70;10.30;;;13.20;68.40;;;;;;5031201;28;20539;-69
2021/05/07 16:42:42;;;;;;;10.40;10.00;;;13.30;68.00;;;;;;5030567;28;20834;-68
2021/05/07 16:45:09;;;;;;;10.10;9.70;;;13.30;67.50;;;;;;5030695;28;20445;-68
2021/05/07 16:47:36;;;;;;;11.47;10.77;;;13.20;67.30;;;;;;5030977;28;20492;-69
2021/05/07 16:50:03;;;;;;;10.00;9.50;;;13.30;65.30;;;;;;5030816;28;20481;-69
2021/05/07 16:52:29;;;;;;;11.10;10.70;;;13.20;65.30;;;;;;5030818;28;20973;-68
2021/05/07 16:54:56;;;;;;;11.53;11.03;;;13.20;63.90;;;;;;5031122;28;20448;-68